createdAt,value
2019-02-24T00:01:18.960Z,8.63
2019-02-24T00:03:45.231Z,9.10
2019-02-24T00:06:11.604Z,8.78
2019-02-24T00:08:37.942Z,8.38
2019-02-24T00:11:04.345Z,8.85
2019-02-24T00:13:30.644Z,8.48
2019-02-24T00:15:57.097Z,10.08
2019-02-24T00:18:23.404Z,8.90
2019-02-24T00:20:49.686Z,9.03
2019-02-24T00:23:15.942Z,8.70
2019-02-24T00:25:42.377Z,9.13
2019-02-24T00:28:08.735Z,8.90
2019-02-24T00:30:35.111Z,9.95
2019-02-24T00:33:01.375Z,11.00
2019-02-24T00:35:27.676Z,10.38
2019-02-24T00:37:53.965Z,9.80
2019-02-24T00:40:20.345Z,10.32
2019-02-24T00:42:46.921Z,9.88
2019-02-24T00:45:13.185Z,9.13
2019-02-24T00:47:39.949Z,9.43
2019-02-24T00:50:07.756Z,10.08
2019-02-24T00:52:34.022Z,9.70
2019-02-24T00:55:00.374Z,9.80
2019-02-24T00:57:26.793Z,9.78
2019-02-24T00:59:53.048Z,10.65
2019-02-24T01:02:19.328Z,9.23
2019-02-24T01:04:45.831Z,8.95
2019-02-24T01:07:12.213Z,8.65
2019-02-24T01:09:38.767Z,9.05
2019-02-24T01:12:05.041Z,9.50
2019-02-24T01:14:31.311Z,8.28
2019-02-24T01:16:57.584Z,9.38
2019-02-24T01:19:23.877Z,8.13
2019-02-24T01:21:50.260Z,9.58
2019-02-24T01:24:16.552Z,8.80
2019-02-24T01:26:42.829Z,9.28
2019-02-24T01:29:09.124Z,9.80
2019-02-24T01:31:35.387Z,9.58
2019-02-24T01:34:02.546Z,10.15
2019-02-24T01:36:28.902Z,8.60
2019-02-24T01:38:55.260Z,8.28
2019-02-24T01:41:21.690Z,7.62
2019-02-24T01:43:47.951Z,8.18
2019-02-24T01:46:14.356Z,8.00
2019-02-24T01:48:40.743Z,9.63
2019-02-24T01:51:07.007Z,8.53
2019-02-24T01:53:33.640Z,7.60
2019-02-24T01:56:00.002Z,7.97
2019-02-24T01:58:34.591Z,8.23
2019-02-24T02:00:54.489Z,7.25
2019-02-24T02:03:20.760Z,7.58
2019-02-24T02:05:47.060Z,8.05
2019-02-24T02:08:13.319Z,8.25
2019-02-24T02:10:39.625Z,8.00
2019-02-24T02:13:05.943Z,8.43
2019-02-24T02:15:32.299Z,7.35
2019-02-24T02:17:58.588Z,6.87
2019-02-24T02:20:24.988Z,6.08
2019-02-24T02:22:51.301Z,6.50
2019-02-24T02:25:17.603Z,7.20
2019-02-24T02:27:43.950Z,7.30
2019-02-24T02:30:10.346Z,6.28
2019-02-24T02:32:37.008Z,6.65
2019-02-24T02:35:06.637Z,6.37
2019-02-24T02:37:32.932Z,7.08
2019-02-24T02:39:59.249Z,7.10
2019-02-24T02:42:25.536Z,7.15
2019-02-24T02:44:51.920Z,7.53
2019-02-24T02:47:18.298Z,7.83
2019-02-24T02:49:44.666Z,6.40
2019-02-24T02:52:10.988Z,7.65
2019-02-24T02:54:37.320Z,7.53
2019-02-24T02:57:03.629Z,6.58
2019-02-24T02:59:29.899Z,8.25
2019-02-24T03:01:56.178Z,7.95
2019-02-24T03:04:22.575Z,8.10
2019-02-24T03:06:53.548Z,7.60
2019-02-24T03:09:19.903Z,7.30
2019-02-24T03:11:46.308Z,8.05
2019-02-24T03:14:12.659Z,7.92
2019-02-24T03:16:39.032Z,7.15
2019-02-24T03:19:05.423Z,7.70
2019-02-24T03:21:31.840Z,7.62
2019-02-24T03:23:58.377Z,7.28
2019-02-24T03:26:24.649Z,7.72
2019-02-24T03:28:50.954Z,7.42
2019-02-24T03:31:17.246Z,7.28
2019-02-24T03:33:44.936Z,7.35
2019-02-24T03:36:11.612Z,6.87
2019-02-24T03:38:37.891Z,6.97
2019-02-24T03:41:04.177Z,7.92
2019-02-24T03:43:31.056Z,6.90
2019-02-24T03:45:57.405Z,7.67
2019-02-24T03:48:23.682Z,7.75
2019-02-24T03:50:50.069Z,7.58
2019-02-24T03:53:16.573Z,8.70
2019-02-24T03:55:43.024Z,7.90
2019-02-24T03:58:09.609Z,7.75
2019-02-24T04:00:36.010Z,6.55
2019-02-24T04:03:02.530Z,6.75
2019-02-24T04:05:28.904Z,7.67
2019-02-24T04:07:55.299Z,6.78
2019-02-24T04:10:21.549Z,7.25
2019-02-24T04:12:47.796Z,8.35
2019-02-24T04:15:14.279Z,7.10
2019-02-24T04:17:40.567Z,6.92
2019-02-24T04:20:07.061Z,5.97
2019-02-24T04:22:33.334Z,6.87
2019-02-24T04:24:59.731Z,6.90
2019-02-24T04:27:26.285Z,6.78
2019-02-24T04:29:52.568Z,6.20
2019-02-24T04:32:18.861Z,5.62
2019-02-24T04:34:45.183Z,5.97
2019-02-24T04:37:11.475Z,5.50
2019-02-24T04:39:37.739Z,6.53
2019-02-24T04:42:04.043Z,4.70
2019-02-24T04:44:30.392Z,5.20
2019-02-24T04:46:56.840Z,6.08
2019-02-24T04:49:23.198Z,5.58
2019-02-24T04:51:49.587Z,6.55
2019-02-24T04:54:15.856Z,5.87
2019-02-24T04:56:42.123Z,5.70
2019-02-24T04:59:08.762Z,5.90
2019-02-24T05:01:35.249Z,5.20
2019-02-24T05:04:01.564Z,6.12
2019-02-24T05:06:27.884Z,6.55
2019-02-24T05:08:55.081Z,7.10
2019-02-24T05:11:21.458Z,7.33
2019-02-24T05:13:47.773Z,5.80
2019-02-24T05:16:14.173Z,6.50
2019-02-24T05:18:41.403Z,5.78
2019-02-24T05:21:07.693Z,6.25
2019-02-24T05:23:33.980Z,6.40
2019-02-24T05:26:00.241Z,6.25
2019-02-24T05:28:26.501Z,5.72
2019-02-24T05:30:52.874Z,5.90
2019-02-24T05:33:19.172Z,5.47
2019-02-24T05:35:45.576Z,6.00
2019-02-24T05:38:11.851Z,6.20
2019-02-24T05:40:38.277Z,5.60
2019-02-24T05:43:04.665Z,5.90
2019-02-24T05:45:31.055Z,7.85
2019-02-24T05:47:57.352Z,7.87
2019-02-24T05:50:23.633Z,6.45
2019-02-24T05:52:49.902Z,7.03
2019-02-24T05:55:16.286Z,6.83
2019-02-24T05:57:42.530Z,6.55
2019-02-24T06:00:09.035Z,5.85
2019-02-24T06:02:35.301Z,6.45
2019-02-24T06:05:01.745Z,6.35
2019-02-24T06:07:28.111Z,5.42
2019-02-24T06:09:54.492Z,6.40
2019-02-24T06:12:20.827Z,6.40
2019-02-24T06:14:47.073Z,6.67
2019-02-24T06:17:13.387Z,6.25
2019-02-24T06:19:39.674Z,6.05
2019-02-24T06:22:06.060Z,5.47
2019-02-24T06:24:32.344Z,6.92
2019-02-24T06:26:58.832Z,5.50
2019-02-24T06:29:25.100Z,6.28
2019-02-24T06:31:51.372Z,6.08
2019-02-24T06:34:17.752Z,5.10
2019-02-24T06:36:44.232Z,5.37
2019-02-24T06:39:10.475Z,6.00
2019-02-24T06:41:36.771Z,6.80
2019-02-24T06:44:03.145Z,6.40
2019-02-24T06:46:29.418Z,6.62
2019-02-24T06:48:55.692Z,6.25
2019-02-24T06:51:21.943Z,5.37
2019-02-24T06:53:48.326Z,6.58
2019-02-24T06:56:14.765Z,6.50
2019-02-24T06:58:41.011Z,6.95
2019-02-24T07:01:07.300Z,6.85
2019-02-24T07:03:33.605Z,6.78
2019-02-24T07:05:59.967Z,6.22
2019-02-24T07:08:26.286Z,7.75
2019-02-24T07:10:52.616Z,8.70
2019-02-24T07:13:19.027Z,6.60
2019-02-24T07:15:45.321Z,7.62
2019-02-24T07:18:11.729Z,7.15
2019-02-24T07:20:38.254Z,6.58
2019-02-24T07:23:04.550Z,5.75
2019-02-24T07:25:30.931Z,6.33
2019-02-24T07:27:57.188Z,6.67
2019-02-24T07:30:23.904Z,7.67
2019-02-24T07:32:50.448Z,7.65
2019-02-24T07:35:16.757Z,7.03
2019-02-24T07:37:43.039Z,6.92
2019-02-24T07:40:09.499Z,6.53
2019-02-24T07:42:35.780Z,5.70
2019-02-24T07:45:03.567Z,5.80
2019-02-24T07:47:29.861Z,5.22
2019-02-24T07:49:56.110Z,5.55
2019-02-24T07:52:22.385Z,5.17
2019-02-24T07:54:48.668Z,5.90
2019-02-24T07:57:14.962Z,4.80
2019-02-24T07:59:41.242Z,4.85
2019-02-24T08:02:07.592Z,5.03
2019-02-24T08:04:33.852Z,4.80
2019-02-24T08:07:00.163Z,4.67
2019-02-24T08:09:26.427Z,4.90
2019-02-24T08:11:52.815Z,5.40
2019-02-24T08:14:19.168Z,4.53
2019-02-24T08:16:45.422Z,5.20
2019-02-24T08:19:11.815Z,4.72
2019-02-24T08:21:38.180Z,5.15
2019-02-24T08:24:04.426Z,8.18
2019-02-24T08:26:30.911Z,17.40
2019-02-24T08:28:58.051Z,8.73
2019-02-24T08:31:24.534Z,4.47
2019-02-24T08:33:50.930Z,4.47
2019-02-24T08:36:17.218Z,4.95
2019-02-24T08:38:43.557Z,6.00
2019-02-24T08:41:09.942Z,6.45
2019-02-24T08:43:36.207Z,4.83
2019-02-24T08:46:02.659Z,4.90
2019-02-24T08:48:28.944Z,4.90
2019-02-24T08:50:55.366Z,5.37
2019-02-24T08:53:26.124Z,4.85
2019-02-24T08:55:52.362Z,6.00
2019-02-24T08:58:18.652Z,5.80
2019-02-24T09:00:50.927Z,4.60
2019-02-24T09:03:14.747Z,5.30
2019-02-24T09:05:41.036Z,5.62
2019-02-24T09:08:07.395Z,5.30
2019-02-24T09:10:33.819Z,5.78
2019-02-24T09:13:00.120Z,5.10
2019-02-24T09:15:26.370Z,5.95
2019-02-24T09:17:52.658Z,5.22
2019-02-24T09:20:19.013Z,5.15
2019-02-24T09:22:45.266Z,4.53
2019-02-24T09:25:11.702Z,5.42
2019-02-24T09:27:37.950Z,5.62
2019-02-24T09:30:10.151Z,7.20
2019-02-24T09:32:36.460Z,5.72
2019-02-24T09:35:04.003Z,5.30
2019-02-24T09:37:30.271Z,5.45
2019-02-24T09:39:56.597Z,5.83
2019-02-24T09:42:22.847Z,5.60
2019-02-24T09:44:49.370Z,5.45
2019-02-24T09:47:19.028Z,5.50
2019-02-24T09:49:45.500Z,5.55
2019-02-24T09:52:13.548Z,4.62
2019-02-24T09:54:39.819Z,5.85
2019-02-24T09:57:06.079Z,5.12
2019-02-24T09:59:32.366Z,5.87
2019-02-24T10:01:58.631Z,4.90
2019-02-24T10:04:24.989Z,5.37
2019-02-24T10:06:51.272Z,5.35
2019-02-24T10:09:17.511Z,5.28
2019-02-24T10:11:43.772Z,5.17
2019-02-24T10:14:10.048Z,6.10
2019-02-24T10:16:36.302Z,5.80
2019-02-24T10:19:02.605Z,6.20
2019-02-24T10:21:28.853Z,6.35
2019-02-24T10:23:55.153Z,6.85
2019-02-24T10:26:21.412Z,6.35
2019-02-24T10:28:47.832Z,6.80
2019-02-24T10:31:19.750Z,6.92
2019-02-24T10:33:42.339Z,9.18
2019-02-24T10:36:08.616Z,11.10
2019-02-24T10:38:34.902Z,11.15
2019-02-24T10:41:01.174Z,7.50
2019-02-24T10:43:27.597Z,8.28
2019-02-24T10:45:53.993Z,7.05
2019-02-24T10:48:20.243Z,8.78
2019-02-24T10:50:46.617Z,8.03
2019-02-24T10:53:12.892Z,7.20
2019-02-24T10:55:39.143Z,7.92
2019-02-24T10:58:05.499Z,7.35
2019-02-24T11:00:31.886Z,8.25
2019-02-24T11:02:58.158Z,7.60
2019-02-24T11:05:24.432Z,9.35
2019-02-24T11:07:50.692Z,9.35
2019-02-24T11:10:17.179Z,9.28
2019-02-24T11:12:43.451Z,9.33
2019-02-24T11:15:11.030Z,7.37
2019-02-24T11:17:37.464Z,6.75
2019-02-24T11:20:07.690Z,6.25
2019-02-24T11:22:33.951Z,7.33
2019-02-24T11:25:00.287Z,6.15
2019-02-24T11:27:26.584Z,6.10
2019-02-24T11:29:52.875Z,6.30
2019-02-24T11:32:19.228Z,6.25
2019-02-24T11:34:45.672Z,6.42
2019-02-24T11:37:11.971Z,6.87
2019-02-24T11:39:38.330Z,5.97
2019-02-24T11:42:04.720Z,7.12
2019-02-24T11:44:30.989Z,6.42
2019-02-24T11:46:57.251Z,7.22
2019-02-24T11:49:24.087Z,6.83
2019-02-24T11:51:50.488Z,7.28
2019-02-24T11:54:16.803Z,7.12
2019-02-24T11:56:43.175Z,12.03
2019-02-24T11:59:09.532Z,8.85
2019-02-24T12:01:35.779Z,7.70
2019-02-24T12:04:02.089Z,8.63
2019-02-24T12:06:28.348Z,6.67
2019-02-24T12:08:54.643Z,7.17
2019-02-24T12:11:20.905Z,7.00
2019-02-24T12:13:47.199Z,12.70
2019-02-24T12:16:13.578Z,8.65
2019-02-24T12:18:39.865Z,6.05
2019-02-24T12:21:06.206Z,6.10
2019-02-24T12:23:32.568Z,5.03
2019-02-24T12:25:58.853Z,4.78
2019-02-24T12:28:25.100Z,4.53
2019-02-24T12:30:51.544Z,4.47
2019-02-24T12:33:17.894Z,4.60
2019-02-24T12:35:44.224Z,6.70
2019-02-24T12:38:10.505Z,5.35
2019-02-24T12:40:36.763Z,4.75
2019-02-24T12:43:03.113Z,4.60
2019-02-24T12:45:29.412Z,4.65
2019-02-24T12:47:55.695Z,4.17
2019-02-24T12:50:22.024Z,4.37
2019-02-24T12:52:48.312Z,4.22
2019-02-24T12:55:14.559Z,4.90
2019-02-24T12:57:41.933Z,5.25
2019-02-24T13:00:13.250Z,4.58
2019-02-24T13:02:39.693Z,5.05
2019-02-24T13:05:06.283Z,6.50
2019-02-24T13:07:32.532Z,5.22
2019-02-24T13:09:58.813Z,4.85
2019-02-24T13:12:25.076Z,5.37
2019-02-24T13:14:51.555Z,3.90
2019-02-24T13:17:17.917Z,5.28
2019-02-24T13:19:44.182Z,4.47
2019-02-24T13:22:10.664Z,5.50
2019-02-24T13:24:37.060Z,5.08
2019-02-24T13:27:05.493Z,5.90
2019-02-24T13:29:31.521Z,5.40
2019-02-24T13:31:57.864Z,5.03
2019-02-24T13:34:24.147Z,4.78
2019-02-24T13:36:50.401Z,5.65
2019-02-24T13:39:16.675Z,6.78
2019-02-24T13:41:42.945Z,4.90
2019-02-24T13:44:09.241Z,5.62
2019-02-24T13:46:35.502Z,5.28
2019-02-24T13:49:01.861Z,6.45
2019-02-24T13:51:28.247Z,6.12
2019-02-24T13:53:54.503Z,5.97
2019-02-24T13:56:20.876Z,5.75
2019-02-24T13:58:47.139Z,5.92
2019-02-24T14:01:13.556Z,5.80
2019-02-24T14:03:39.817Z,5.90
2019-02-24T14:06:06.177Z,5.55
2019-02-24T14:08:32.592Z,5.50
2019-02-24T14:10:58.927Z,5.85
2019-02-24T14:13:25.192Z,6.30
2019-02-24T14:15:51.470Z,5.80
2019-02-24T14:18:17.867Z,5.15
2019-02-24T14:20:44.144Z,5.75
2019-02-24T14:23:10.405Z,5.80
2019-02-24T14:25:36.694Z,5.47
2019-02-24T14:28:03.071Z,6.35
2019-02-24T14:30:29.486Z,5.55
2019-02-24T14:32:55.775Z,5.60
2019-02-24T14:35:23.774Z,6.80
2019-02-24T14:37:50.023Z,5.97
2019-02-24T14:40:16.428Z,8.80
2019-02-24T14:42:42.773Z,6.90
2019-02-24T14:45:14.965Z,11.73
2019-02-24T14:47:41.250Z,13.00
2019-02-24T14:50:09.010Z,6.70
2019-02-24T14:52:35.484Z,6.47
2019-02-24T14:55:02.367Z,10.50
2019-02-24T14:57:28.741Z,6.00
2019-02-24T14:59:55.032Z,4.90
2019-02-24T15:02:21.392Z,5.55
2019-02-24T15:04:47.699Z,5.67
2019-02-24T15:07:13.957Z,9.80
2019-02-24T15:09:40.256Z,5.50
2019-02-24T15:12:06.609Z,4.90
2019-02-24T15:14:32.880Z,5.07
2019-02-24T15:16:59.181Z,4.47
2019-02-24T15:19:25.541Z,5.10
2019-02-24T15:21:51.861Z,5.07
2019-02-24T15:24:18.346Z,4.70
2019-02-24T15:26:44.696Z,5.90
2019-02-24T15:29:11.081Z,17.57
2019-02-24T15:31:37.398Z,7.13
2019-02-24T15:34:03.750Z,7.00
2019-02-24T15:36:30.002Z,6.00
2019-02-24T15:38:56.408Z,14.37
2019-02-24T15:41:29.526Z,8.10
2019-02-24T15:43:50.739Z,7.27
2019-02-24T15:46:17.016Z,6.70
2019-02-24T15:48:43.268Z,6.10
2019-02-24T15:51:09.663Z,6.90
2019-02-24T15:53:35.928Z,9.10
2019-02-24T15:56:02.407Z,12.73
2019-02-24T15:58:28.701Z,6.50
2019-02-24T16:00:55.082Z,5.67
2019-02-24T16:03:21.359Z,8.20
2019-02-24T16:05:47.616Z,11.27
2019-02-24T16:08:13.899Z,9.90
2019-02-24T16:10:40.259Z,10.43
2019-02-24T16:13:06.572Z,10.27
2019-02-24T16:15:32.831Z,10.23
2019-02-24T16:17:59.119Z,9.53
2019-02-24T16:20:33.610Z,9.55
2019-02-24T16:22:59.891Z,9.30
2019-02-24T16:25:26.468Z,9.95
2019-02-24T16:27:53.155Z,13.48
2019-02-24T16:30:19.447Z,10.72
2019-02-24T16:32:45.717Z,14.85
2019-02-24T16:35:13.719Z,15.08
2019-02-24T16:37:40.109Z,13.53
2019-02-24T16:40:12.696Z,13.50
2019-02-24T16:42:39.120Z,13.72
2019-02-24T16:45:10.770Z,13.68
2019-02-24T16:47:38.337Z,11.93
2019-02-24T16:50:08.402Z,13.40
2019-02-24T16:52:34.685Z,9.70
2019-02-24T16:55:01.012Z,9.95
2019-02-24T16:57:27.579Z,9.68
2019-02-24T16:59:53.860Z,10.75
2019-02-24T17:02:22.871Z,12.78
2019-02-24T17:04:48.301Z,11.45
2019-02-24T17:07:14.697Z,11.25
2019-02-24T17:09:40.985Z,10.15
2019-02-24T17:12:07.262Z,10.13
2019-02-24T17:14:33.516Z,12.23
2019-02-24T17:17:01.748Z,9.80
2019-02-24T17:19:27.864Z,9.93
2019-02-24T17:21:54.166Z,10.53
2019-02-24T17:24:20.440Z,9.08
2019-02-24T17:26:46.786Z,9.15
2019-02-24T17:29:13.062Z,8.98
2019-02-24T17:31:39.448Z,10.08
2019-02-24T17:34:05.713Z,9.35
2019-02-24T17:36:31.981Z,9.10
2019-02-24T17:38:58.263Z,9.33
2019-02-24T17:41:24.533Z,8.63
2019-02-24T17:43:50.824Z,8.48
2019-02-24T17:46:17.091Z,8.40
2019-02-24T17:48:43.366Z,9.18
2019-02-24T17:51:09.738Z,9.10
2019-02-24T17:53:35.995Z,9.73
2019-02-24T17:56:02.307Z,9.90
2019-02-24T17:58:28.563Z,9.03
2019-02-24T18:00:56.857Z,9.40
2019-02-24T18:03:23.108Z,8.90
2019-02-24T18:05:49.491Z,10.80
2019-02-24T18:08:15.750Z,9.25
2019-02-24T18:10:42.014Z,10.65
2019-02-24T18:13:08.405Z,9.98
2019-02-24T18:15:34.662Z,10.32
2019-02-24T18:18:01.021Z,9.45
2019-02-24T18:20:27.288Z,9.95
2019-02-24T18:22:53.581Z,9.55
